Airfield :
LOGIN :

Register | Disclaimer

   EN    FR    IT 

 










Legend :    VFR   Marginal VFR   IFR   Intensive IFR   Very Intensive IFR
Visi :
Ceiling :
>= 8 km
>= 3000ft
5 to 8 km
1000 to 3000 ft
1500m to 5 km
500 to 1000 ft
800 to 1500m
200 to 500 ft
< 800m
< 200 ft
Symbols :   Thunderstorms  Fog  Heavy snow  Heavy precipitations  Wind > 20 kt
SIGMETs :     Misc.  Thunderstorms  Icing  Turbulence  Mountain Waves  Volcanic Ashes







- Airport Elevation : 144 ft
- IATA code : PGF
- Download approach charts


LFMP - Perpignan

CURRENT METAR :
  • 210930Z AUTO 10005KT 070V130 CAVOK 27/10 Q1021 NOSIG

EXPIRED METARs :
  • 210900Z AUTO 12004KT 080V180 CAVOK 27/08 Q1021 NOSIG
  • 210830Z AUTO 11005KT 060V150 CAVOK 26/07 Q1021 NOSIG
  • 210800Z AUTO 12005KT 050V160 CAVOK 25/08 Q1021 NOSIG
  • 210730Z AUTO 21004KT 180V260 CAVOK 23/07 Q1021 NOSIG
  • 210700Z AUTO 19004KT CAVOK 22/08 Q1021 NOSIG

TAF TAF LFMP
Valid from the 21 at 09:00 until the 22 at 09:00 UTC


210800Z 2109/2209 VRB04KT CAVOK
BECMG 2110/2112 08010KT
BECMG 2115/2118 VRB03KT
ATIS : +33 4 68 63 75 12
No reported NOTAMs for that airfield.



MET'MAP, your aeronautical weather chart ! - Copyright ORBIFLY December 2007 - Disclaimer

ORBIFLY MET'MAP TEAM :

Programming & Development : Alexandra Zaïnal
Concept & Development : Baudouin d'Aumeries
Co-Development & Prog : Marc-Olivier Méhu
Technical & hardware support : Manuel Goepfert

Contact : metmap@orbifly.com




SOURCES & CREDITS :

   NOAA